createdAt,value
2022-12-08T00:01:24.575Z,9.75
2022-12-08T00:03:52.174Z,8.68
2022-12-08T00:06:50.044Z,9.65
2022-12-08T00:09:39.447Z,10.25
2022-12-08T00:12:13.249Z,8.57
2022-12-08T00:14:45.866Z,9.57
2022-12-08T00:17:14.581Z,7.80
2022-12-08T00:19:42.392Z,9.20
2022-12-08T00:22:11.013Z,7.18
2022-12-08T00:24:39.999Z,5.10
2022-12-08T00:27:08.837Z,6.38
2022-12-08T00:29:36.058Z,6.07
2022-12-08T00:32:03.334Z,9.25
2022-12-08T00:34:31.509Z,5.82
2022-12-08T00:36:58.515Z,5.30
2022-12-08T00:39:25.568Z,8.52
2022-12-08T00:42:11.096Z,8.43
2022-12-08T00:44:38.864Z,5.93
2022-12-08T00:47:05.913Z,8.68
2022-12-08T00:49:32.933Z,4.95
2022-12-08T00:52:00.226Z,6.20
2022-12-08T00:54:27.226Z,6.00
2022-12-08T00:56:54.318Z,5.25
2022-12-08T00:59:21.394Z,4.82
2022-12-08T01:01:48.688Z,7.35
2022-12-08T01:04:17.975Z,5.70
2022-12-08T01:06:45.713Z,7.53
2022-12-08T01:09:15.707Z,5.00
2022-12-08T01:11:44.703Z,5.80
2022-12-08T01:14:12.737Z,4.10
2022-12-08T01:16:41.663Z,4.65
2022-12-08T01:19:12.192Z,3.83
2022-12-08T01:21:40.428Z,4.65
2022-12-08T01:24:08.035Z,6.82
2022-12-08T01:26:35.089Z,7.22
2022-12-08T01:29:02.155Z,6.32
2022-12-08T01:31:29.256Z,4.35
2022-12-08T01:33:56.804Z,6.15
2022-12-08T01:36:29.115Z,5.60
2022-12-08T01:38:58.744Z,6.30
2022-12-08T01:41:30.509Z,4.75
2022-12-08T01:44:10.904Z,6.85
2022-12-08T01:46:41.129Z,4.05
2022-12-08T01:49:24.903Z,4.00
2022-12-08T01:52:30.476Z,3.40
2022-12-08T01:55:10.768Z,5.93
2022-12-08T01:57:44.256Z,5.38
2022-12-08T02:00:15.070Z,3.95
2022-12-08T02:03:07.249Z,3.33
2022-12-08T02:05:39.979Z,5.70
2022-12-08T02:08:10.830Z,5.10
2022-12-08T02:10:41.169Z,3.47
2022-12-08T02:13:12.584Z,4.22
2022-12-08T02:15:53.577Z,4.78
2022-12-08T02:19:28.577Z,4.93
2022-12-08T02:22:04.898Z,2.90
2022-12-08T02:24:40.250Z,6.07
2022-12-08T02:27:36.748Z,7.85
2022-12-08T02:30:22.266Z,4.80
2022-12-08T02:33:14.205Z,2.88
2022-12-08T02:36:01.149Z,4.82
2022-12-08T02:38:31.010Z,5.80
2022-12-08T02:41:01.078Z,4.03
2022-12-08T02:43:44.102Z,3.95
2022-12-08T02:46:22.055Z,5.40
2022-12-08T02:48:51.744Z,5.43
2022-12-08T02:51:19.975Z,5.80
2022-12-08T02:53:48.209Z,4.05
2022-12-08T02:56:15.234Z,4.03
2022-12-08T02:58:51.165Z,4.15
2022-12-08T03:01:18.232Z,3.38
2022-12-08T03:04:06.303Z,6.55
2022-12-08T03:06:50.653Z,5.68
2022-12-08T03:09:43.649Z,5.03
2022-12-08T03:12:16.796Z,3.97
2022-12-08T03:14:48.376Z,2.55
2022-12-08T03:17:19.613Z,3.33
2022-12-08T03:19:49.127Z,3.97
2022-12-08T03:22:20.172Z,3.03
2022-12-08T03:24:47.519Z,4.13
2022-12-08T03:27:21.174Z,4.90
2022-12-08T03:29:51.070Z,5.43
2022-12-08T03:32:36.537Z,4.63
2022-12-08T03:35:09.679Z,3.97
2022-12-08T03:37:38.574Z,7.90
2022-12-08T03:40:08.844Z,4.65
2022-12-08T03:42:35.833Z,3.50
2022-12-08T03:45:03.358Z,4.22
2022-12-08T03:47:30.434Z,3.65
2022-12-08T03:49:57.513Z,5.47
2022-12-08T03:52:24.741Z,4.55
2022-12-08T03:54:51.766Z,6.88
2022-12-08T03:57:18.761Z,4.22
2022-12-08T03:59:45.748Z,7.53
2022-12-08T04:02:12.849Z,5.80
2022-12-08T04:04:40.073Z,6.20
2022-12-08T04:07:07.193Z,6.25
2022-12-08T04:09:34.245Z,5.15
2022-12-08T04:12:01.233Z,5.30
2022-12-08T04:14:28.263Z,5.28
2022-12-08T04:16:55.362Z,4.40
2022-12-08T04:19:22.460Z,8.55
2022-12-08T04:21:49.558Z,6.78
2022-12-08T04:24:16.607Z,5.50
2022-12-08T04:26:43.795Z,4.05
2022-12-08T04:29:10.835Z,7.90
2022-12-08T04:31:38.235Z,7.03
2022-12-08T04:34:05.340Z,7.13
2022-12-08T04:36:32.474Z,5.65
2022-12-08T04:38:59.473Z,8.20
2022-12-08T04:41:26.629Z,4.25
2022-12-08T04:43:53.684Z,6.05
2022-12-08T04:46:20.830Z,7.32
2022-12-08T04:48:48.001Z,6.05
2022-12-08T04:51:19.475Z,7.18
2022-12-08T04:53:47.533Z,7.47
2022-12-08T04:56:19.483Z,10.05
2022-12-08T04:58:46.560Z,8.95
2022-12-08T05:01:14.218Z,9.40
2022-12-08T05:03:41.331Z,6.68
2022-12-08T05:06:11.124Z,7.88
2022-12-08T05:08:38.174Z,6.45
2022-12-08T05:11:07.684Z,9.13
2022-12-08T05:13:34.895Z,7.20
2022-12-08T05:16:07.938Z,7.65
2022-12-08T05:18:35.756Z,6.53
2022-12-08T05:21:03.613Z,7.80
2022-12-08T05:23:30.719Z,9.15
2022-12-08T05:25:58.397Z,10.75
2022-12-08T05:28:41.405Z,8.48
2022-12-08T05:31:10.290Z,11.68
2022-12-08T05:33:37.375Z,6.25
2022-12-08T05:36:04.610Z,6.45
2022-12-08T05:38:31.661Z,6.15
2022-12-08T05:40:58.820Z,11.52
2022-12-08T05:43:25.867Z,10.68
2022-12-08T05:45:52.895Z,10.55
2022-12-08T05:48:19.926Z,12.10
2022-12-08T05:50:48.257Z,10.75
2022-12-08T05:53:17.012Z,14.38
2022-12-08T05:55:44.739Z,16.02
2022-12-08T05:58:17.898Z,12.00
2022-12-08T06:00:45.893Z,14.20
2022-12-08T06:03:14.258Z,12.10
2022-12-08T06:05:42.835Z,14.07
2022-12-08T06:08:10.480Z,11.77
2022-12-08T06:10:45.474Z,13.63
2022-12-08T06:13:13.283Z,10.02
2022-12-08T06:15:40.754Z,16.85
2022-12-08T06:18:08.769Z,13.23
2022-12-08T06:20:35.868Z,14.18
2022-12-08T06:23:03.684Z,13.27
2022-12-08T06:25:30.949Z,14.10
2022-12-08T06:27:58.044Z,16.63
2022-12-08T06:30:25.071Z,12.48
2022-12-08T06:32:52.270Z,15.27
2022-12-08T06:35:19.412Z,13.80
2022-12-08T06:37:46.448Z,13.95
2022-12-08T06:40:13.908Z,12.10
2022-12-08T06:42:43.919Z,13.32
2022-12-08T06:45:20.079Z,16.08
2022-12-08T06:47:47.150Z,18.35
2022-12-08T06:50:15.062Z,20.52
2022-12-08T06:52:55.790Z,18.05
2022-12-08T06:55:59.430Z,21.35
2022-12-08T06:58:16.174Z,23.60
2022-12-08T07:00:43.978Z,18.08
2022-12-08T07:03:11.955Z,22.10
2022-12-08T07:05:39.466Z,18.02
2022-12-08T07:08:08.911Z,21.38
2022-12-08T07:10:36.505Z,18.73
2022-12-08T07:13:04.200Z,19.05
2022-12-08T07:15:31.291Z,18.85
2022-12-08T07:18:00.243Z,21.48
2022-12-08T07:20:28.392Z,20.25
2022-12-08T07:22:55.504Z,17.95
2022-12-08T07:25:22.652Z,19.83
2022-12-08T07:27:51.754Z,21.10
2022-12-08T07:30:19.168Z,19.35
2022-12-08T07:32:46.613Z,20.10
2022-12-08T07:35:13.956Z,19.25
2022-12-08T07:37:41.064Z,22.95
2022-12-08T07:40:09.347Z,20.27
2022-12-08T07:42:36.474Z,21.05
2022-12-08T07:45:03.760Z,18.13
2022-12-08T07:47:31.118Z,20.52
2022-12-08T07:49:58.159Z,23.45
2022-12-08T07:52:25.344Z,21.75
2022-12-08T07:54:52.404Z,21.95
2022-12-08T07:57:19.449Z,25.27
2022-12-08T07:59:46.448Z,24.27
2022-12-08T08:02:26.283Z,30.30
2022-12-08T08:04:53.775Z,22.83
2022-12-08T08:07:21.037Z,22.42
2022-12-08T08:09:48.113Z,22.10
2022-12-08T08:12:30.705Z,20.83
2022-12-08T08:14:59.219Z,21.13
2022-12-08T08:17:26.390Z,23.20
2022-12-08T08:19:53.563Z,22.52
2022-12-08T08:22:20.594Z,22.95
2022-12-08T08:24:47.583Z,23.67
2022-12-08T08:27:14.746Z,21.40
2022-12-08T08:29:41.876Z,21.83
2022-12-08T08:32:09.065Z,23.77
2022-12-08T08:34:36.154Z,20.20
2022-12-08T08:37:03.286Z,23.50
2022-12-08T08:39:31.997Z,22.05
2022-12-08T08:41:59.298Z,18.42
2022-12-08T08:44:26.478Z,23.00
2022-12-08T08:46:53.752Z,25.50
2022-12-08T08:49:21.547Z,23.98
2022-12-08T08:51:48.654Z,24.80
2022-12-08T08:54:15.925Z,25.42
2022-12-08T08:56:43.022Z,29.38
2022-12-08T08:59:10.911Z,28.73
2022-12-08T09:01:37.969Z,36.95
2022-12-08T09:04:05.285Z,30.95
2022-12-08T09:06:32.566Z,34.63
2022-12-08T09:08:59.835Z,37.60
2022-12-08T09:11:26.951Z,42.97
2022-12-08T09:13:54.843Z,40.63
2022-12-08T09:16:23.078Z,40.55
2022-12-08T09:18:50.856Z,43.72
2022-12-08T09:21:26.092Z,48.88
2022-12-08T09:23:55.346Z,46.03
2022-12-08T09:26:23.426Z,50.07
2022-12-08T09:28:51.903Z,49.83
2022-12-08T09:31:20.751Z,51.83
2022-12-08T09:33:48.426Z,51.90
2022-12-08T09:36:15.788Z,53.38
2022-12-08T09:38:42.820Z,46.65
2022-12-08T09:41:38.960Z,47.22
2022-12-08T09:44:33.294Z,52.70
2022-12-08T09:47:01.915Z,44.70
2022-12-08T09:49:40.276Z,54.05
2022-12-08T09:52:19.043Z,48.78
2022-12-08T09:54:46.197Z,47.15
2022-12-08T09:57:19.718Z,38.92
2022-12-08T09:59:53.598Z,35.20
2022-12-08T10:02:26.837Z,40.25
2022-12-08T10:04:56.317Z,37.83
2022-12-08T10:07:45.563Z,44.67
2022-12-08T10:10:21.468Z,36.00
2022-12-08T10:12:59.890Z,34.08
2022-12-08T10:15:46.317Z,39.85
2022-12-08T10:18:19.500Z,33.25
2022-12-08T10:20:49.315Z,32.88
2022-12-08T10:23:29.149Z,35.53
2022-12-08T10:26:26.587Z,35.53
2022-12-08T10:28:53.743Z,30.63
2022-12-08T10:31:23.856Z,30.58
2022-12-08T10:36:51.521Z,34.95
2022-12-08T10:42:02.964Z,35.15
2022-12-08T10:44:30.258Z,36.85
2022-12-08T10:46:58.710Z,37.05
2022-12-08T10:49:32.495Z,35.80
2022-12-08T10:51:59.667Z,35.30
2022-12-08T10:54:34.589Z,36.58
2022-12-08T10:57:02.012Z,32.83
2022-12-08T10:59:29.447Z,32.78
2022-12-08T11:01:57.772Z,40.85
2022-12-08T11:04:36.718Z,37.00
2022-12-08T11:07:06.552Z,36.38
2022-12-08T11:09:50.965Z,40.75
2022-12-08T11:12:22.325Z,38.88
2022-12-08T11:15:01.621Z,37.97
2022-12-08T11:17:35.999Z,37.87
2022-12-08T11:20:22.574Z,40.45
2022-12-08T11:22:55.242Z,36.72
2022-12-08T11:25:26.149Z,40.17
2022-12-08T11:27:57.539Z,39.85
2022-12-08T11:30:49.039Z,38.58
2022-12-08T11:33:16.069Z,37.38
2022-12-08T11:35:52.051Z,39.17
2022-12-08T11:38:25.051Z,31.98
2022-12-08T11:41:12.301Z,39.45
2022-12-08T11:43:48.501Z,40.90
2022-12-08T11:46:21.313Z,41.42
2022-12-08T11:48:55.057Z,39.55
2022-12-08T11:51:32.532Z,34.13
2022-12-08T11:54:02.313Z,41.88
2022-12-08T11:56:40.610Z,42.38
2022-12-08T11:59:31.790Z,37.58
2022-12-08T12:02:01.127Z,41.25
2022-12-08T12:04:50.964Z,39.42
2022-12-08T12:07:23.021Z,36.03
2022-12-08T12:10:14.886Z,36.65
2022-12-08T12:13:13.608Z,36.40
2022-12-08T12:16:22.034Z,34.65
2022-12-08T12:19:03.429Z,40.35
2022-12-08T12:21:40.161Z,34.83
2022-12-08T12:24:10.203Z,35.75
2022-12-08T12:27:10.178Z,37.92
2022-12-08T12:29:39.040Z,44.28
2022-12-08T12:32:08.888Z,35.55
2022-12-08T12:34:39.294Z,35.88
2022-12-08T12:37:11.336Z,41.20
2022-12-08T12:39:53.102Z,40.75
2022-12-08T12:42:42.691Z,37.00
2022-12-08T12:45:20.172Z,34.58
2022-12-08T12:47:56.232Z,34.65
2022-12-08T12:50:43.811Z,34.65
2022-12-08T12:53:16.528Z,32.88
2022-12-08T12:55:46.575Z,35.60
2022-12-08T12:58:36.664Z,37.08
2022-12-08T13:01:15.327Z,39.03
2022-12-08T13:03:49.960Z,40.83
2022-12-08T13:06:38.302Z,38.20
2022-12-08T13:09:07.466Z,35.63
2022-12-08T13:11:51.505Z,38.97
2022-12-08T13:14:29.634Z,35.95
2022-12-08T13:16:59.223Z,38.80
2022-12-08T13:19:29.662Z,39.42
2022-12-08T13:21:56.844Z,40.60
2022-12-08T13:24:29.620Z,36.90
2022-12-08T13:27:05.771Z,41.70
2022-12-08T13:29:34.117Z,39.35
2022-12-08T13:32:02.019Z,39.05
2022-12-08T13:34:33.420Z,42.30
2022-12-08T13:37:09.143Z,36.08
2022-12-08T13:39:39.207Z,40.47
2022-12-08T13:42:29.336Z,44.33
2022-12-08T13:45:30.152Z,36.67
2022-12-08T13:54:56.034Z,39.53
2022-12-08T13:57:05.133Z,37.20
2022-12-08T13:59:34.533Z,38.35
2022-12-08T14:02:30.344Z,34.33
2022-12-08T14:07:47.013Z,42.60
2022-12-08T14:10:21.101Z,43.77
2022-12-08T14:12:55.525Z,40.53
2022-12-08T14:15:22.857Z,43.10
2022-12-08T14:17:57.575Z,49.17
2022-12-08T14:20:33.814Z,46.30
2022-12-08T14:23:09.943Z,40.63
2022-12-08T14:25:38.901Z,43.17
2022-12-08T14:28:06.095Z,44.30
2022-12-08T14:30:34.775Z,40.13
2022-12-08T14:33:04.701Z,46.40
2022-12-08T14:35:39.094Z,53.00
2022-12-08T14:38:13.897Z,50.17
2022-12-08T14:40:46.699Z,51.95
2022-12-08T14:43:20.079Z,43.38
2022-12-08T14:45:48.443Z,56.60
2022-12-08T14:48:38.930Z,49.20
2022-12-08T14:51:12.691Z,46.63
2022-12-08T14:54:06.711Z,50.80
2022-12-08T14:56:38.851Z,49.95
2022-12-08T14:59:38.296Z,44.50
2022-12-08T15:02:20.003Z,49.80
2022-12-08T15:04:56.305Z,50.38
2022-12-08T15:07:26.314Z,52.38
2022-12-08T15:10:26.913Z,55.88
2022-12-08T15:13:07.563Z,57.25
2022-12-08T15:15:51.120Z,41.03
2022-12-08T15:18:21.803Z,51.08
2022-12-08T15:21:01.566Z,53.90
2022-12-08T15:23:42.845Z,49.35
2022-12-08T15:26:23.613Z,54.90
2022-12-08T15:28:51.421Z,49.25
2022-12-08T15:31:19.245Z,53.08
2022-12-08T15:33:46.387Z,49.92
2022-12-08T15:36:13.499Z,47.08
2022-12-08T15:38:40.561Z,48.22
2022-12-08T15:41:13.026Z,49.88
2022-12-08T15:43:41.860Z,51.50
2022-12-08T15:46:09.094Z,48.25
2022-12-08T15:48:37.938Z,41.35
2022-12-08T15:51:05.273Z,47.28
2022-12-08T15:53:32.286Z,48.15
2022-12-08T15:56:26.860Z,47.85
2022-12-08T15:58:54.754Z,49.38
2022-12-08T16:01:22.870Z,49.83
2022-12-08T16:07:19.763Z,51.75
2022-12-08T16:09:33.572Z,57.67
2022-12-08T16:12:19.502Z,52.35
2022-12-08T16:15:47.248Z,47.97
2022-12-08T16:17:34.287Z,51.00
2022-12-08T16:20:01.981Z,50.30
2022-12-08T16:25:22.437Z,48.70
2022-12-08T16:28:08.255Z,45.83
2022-12-08T16:30:40.005Z,48.15
2022-12-08T16:33:07.124Z,46.58
2022-12-08T16:35:34.203Z,47.63
2022-12-08T16:38:01.419Z,46.80
2022-12-08T16:40:28.666Z,46.50
2022-12-08T16:42:55.723Z,43.83
2022-12-08T16:45:28.659Z,46.20
2022-12-08T16:48:00.736Z,46.38
2022-12-08T16:50:29.533Z,44.13
2022-12-08T16:52:59.906Z,44.28
2022-12-08T16:55:27.617Z,49.35
2022-12-08T16:57:55.184Z,41.63
2022-12-08T17:00:25.046Z,41.20
2022-12-08T17:02:53.121Z,47.88
2022-12-08T17:05:22.810Z,44.08
2022-12-08T17:07:51.502Z,42.17
2022-12-08T17:10:25.315Z,43.47
2022-12-08T17:12:53.488Z,41.33
2022-12-08T17:15:23.891Z,46.03
2022-12-08T17:17:51.891Z,41.60
2022-12-08T17:20:29.682Z,41.10
2022-12-08T17:22:58.396Z,41.13
2022-12-08T17:25:26.987Z,47.75
2022-12-08T17:27:54.763Z,40.45
2022-12-08T17:30:22.101Z,38.10
2022-12-08T17:32:49.209Z,39.08
2022-12-08T17:35:16.383Z,36.47
2022-12-08T17:37:44.181Z,37.35
2022-12-08T17:40:11.741Z,41.20
2022-12-08T17:42:39.192Z,38.40
2022-12-08T17:45:10.371Z,39.58
2022-12-08T17:47:37.914Z,33.25
2022-12-08T17:50:06.861Z,36.40
2022-12-08T17:52:34.503Z,37.15
2022-12-08T17:55:01.579Z,33.53
2022-12-08T17:57:28.690Z,35.03
2022-12-08T17:59:56.005Z,32.88
2022-12-08T18:02:23.381Z,31.83
2022-12-08T18:04:50.594Z,38.33
2022-12-08T18:07:17.771Z,35.55
2022-12-08T18:09:44.843Z,31.45
2022-12-08T18:12:11.985Z,34.35
2022-12-08T18:14:39.084Z,34.58
2022-12-08T18:17:06.271Z,33.53
2022-12-08T18:19:33.744Z,34.72
2022-12-08T18:22:01.686Z,35.45
2022-12-08T18:24:28.855Z,36.85
2022-12-08T18:26:57.606Z,36.70
2022-12-08T18:29:25.359Z,34.97
2022-12-08T18:31:52.574Z,33.80
2022-12-08T18:34:19.988Z,33.05
2022-12-08T18:36:48.062Z,31.83
2022-12-08T18:39:32.481Z,32.97
2022-12-08T18:42:02.770Z,31.98
2022-12-08T18:44:29.993Z,31.35
2022-12-08T18:46:57.098Z,32.53
2022-12-08T18:49:24.096Z,32.35
2022-12-08T18:51:51.203Z,32.78
2022-12-08T18:54:22.028Z,31.23
2022-12-08T18:56:51.617Z,34.85
2022-12-08T18:59:20.700Z,33.25
2022-12-08T19:01:47.755Z,31.33
2022-12-08T19:04:32.643Z,35.83
2022-12-08T19:07:01.812Z,33.17
2022-12-08T19:09:29.290Z,33.00
2022-12-08T19:11:57.315Z,32.05
2022-12-08T19:14:28.286Z,36.08
2022-12-08T19:16:59.782Z,33.50
2022-12-08T19:19:27.799Z,33.33
2022-12-08T19:21:55.110Z,37.42
2022-12-08T19:24:22.539Z,36.80
2022-12-08T19:26:49.810Z,37.28
2022-12-08T19:29:17.288Z,37.78
2022-12-08T19:31:44.635Z,38.35
2022-12-08T19:34:13.699Z,36.35
2022-12-08T19:36:43.180Z,38.60
2022-12-08T19:39:46.823Z,39.42
2022-12-08T19:42:38.681Z,37.13
2022-12-08T19:45:07.891Z,41.40
2022-12-08T19:47:35.132Z,44.00
2022-12-08T19:50:22.515Z,46.38
2022-12-08T19:52:50.111Z,41.67
2022-12-08T19:55:17.341Z,45.20
2022-12-08T19:57:44.483Z,44.33
2022-12-08T20:00:13.072Z,52.08
2022-12-08T20:02:40.294Z,48.50
2022-12-08T20:05:08.925Z,47.67
2022-12-08T20:07:36.212Z,55.17
2022-12-08T20:10:07.321Z,53.20
2022-12-08T20:12:34.581Z,54.70
2022-12-08T20:15:01.860Z,59.50
2022-12-08T20:17:28.931Z,62.53
2022-12-08T20:19:56.009Z,59.20
2022-12-08T20:22:23.088Z,52.28
2022-12-08T20:24:58.267Z,54.53
2022-12-08T20:27:29.272Z,65.13
2022-12-08T20:29:56.416Z,49.88
2022-12-08T20:32:23.571Z,50.60
2022-12-08T20:34:50.796Z,53.08
2022-12-08T20:37:17.870Z,53.72
2022-12-08T20:39:44.994Z,48.08
2022-12-08T20:42:13.986Z,50.20
2022-12-08T20:44:44.663Z,53.03
2022-12-08T20:47:13.167Z,58.55
2022-12-08T20:49:40.439Z,53.58
2022-12-08T20:52:08.641Z,53.95
2022-12-08T20:54:37.346Z,50.08
2022-12-08T20:57:04.930Z,53.60
2022-12-08T20:59:32.372Z,57.42
2022-12-08T21:02:00.794Z,61.05
2022-12-08T21:04:28.293Z,59.03
2022-12-08T21:06:55.801Z,53.95
2022-12-08T21:09:23.209Z,54.92
2022-12-08T21:11:50.429Z,83.22
2022-12-08T21:14:17.978Z,55.42
2022-12-08T21:16:45.589Z,68.70
2022-12-08T21:19:13.088Z,58.45
2022-12-08T21:21:40.221Z,62.55
2022-12-08T21:24:07.812Z,55.13
2022-12-08T21:26:34.872Z,63.45
2022-12-08T21:29:01.983Z,55.95
2022-12-08T21:31:31.982Z,60.15
2022-12-08T21:36:27.452Z,47.67
2022-12-08T21:38:55.294Z,61.70
2022-12-08T21:41:42.115Z,55.80
2022-12-08T21:44:11.930Z,60.97
2022-12-08T21:46:39.215Z,64.95
2022-12-08T21:49:06.724Z,66.68
2022-12-08T21:51:37.942Z,57.90
2022-12-08T21:54:05.429Z,59.67
2022-12-08T21:56:32.635Z,78.75
2022-12-08T21:58:59.867Z,82.70
2022-12-08T22:01:27.198Z,59.15
2022-12-08T22:03:54.812Z,62.05
2022-12-08T22:06:22.123Z,63.28
2022-12-08T22:08:49.281Z,71.90
2022-12-08T22:11:17.077Z,54.70
2022-12-08T22:13:44.438Z,60.92
2022-12-08T22:16:14.966Z,55.42
2022-12-08T22:18:42.608Z,54.90
2022-12-08T22:21:18.399Z,53.92
2022-12-08T22:23:45.613Z,44.85
2022-12-08T22:26:13.541Z,53.72
2022-12-08T22:28:43.039Z,52.13
2022-12-08T22:31:18.565Z,44.53
2022-12-08T22:33:45.995Z,57.30
2022-12-08T22:36:19.432Z,46.17
2022-12-08T22:38:47.329Z,58.25
2022-12-08T22:41:15.413Z,46.88
2022-12-08T22:43:43.012Z,47.38
2022-12-08T22:46:14.462Z,60.75
2022-12-08T22:48:41.884Z,44.45
2022-12-08T22:51:09.784Z,46.80
2022-12-08T22:53:37.201Z,45.47
2022-12-08T22:56:05.777Z,43.20
2022-12-08T22:58:33.086Z,46.75
2022-12-08T23:01:00.328Z,40.55
2022-12-08T23:03:27.462Z,51.47
2022-12-08T23:05:54.736Z,47.92
2022-12-08T23:08:21.860Z,49.60
2022-12-08T23:10:51.070Z,40.83
2022-12-08T23:13:18.618Z,46.88
2022-12-08T23:15:46.029Z,60.33
2022-12-08T23:18:19.274Z,46.38
2022-12-08T23:20:47.779Z,45.83
2022-12-08T23:23:15.449Z,44.88
2022-12-08T23:25:43.861Z,45.20
2022-12-08T23:28:11.387Z,44.00
2022-12-08T23:30:41.453Z,64.45
2022-12-08T23:33:08.619Z,71.07
2022-12-08T23:35:35.869Z,56.55
2022-12-08T23:38:03.011Z,54.72
2022-12-08T23:40:30.540Z,64.47
2022-12-08T23:42:57.751Z,48.25
2022-12-08T23:45:24.908Z,47.65
2022-12-08T23:47:52.309Z,48.55
2022-12-08T23:50:19.677Z,44.42
2022-12-08T23:52:46.799Z,47.15
2022-12-08T23:55:19.461Z,51.88
2022-12-08T23:57:46.773Z,47.45
